createdAt,value
2023-02-04T00:00:48.061Z,1024.69
2023-02-04T00:01:48.309Z,1024.62
2023-02-04T00:02:48.464Z,1024.76
2023-02-04T00:03:48.605Z,1024.84
2023-02-04T00:04:48.755Z,1024.84
2023-02-04T00:05:49.020Z,1024.79
2023-02-04T00:06:49.124Z,1024.93
2023-02-04T00:07:49.296Z,1025.08
2023-02-04T00:08:49.448Z,1024.94
2023-02-04T00:09:49.651Z,1024.99
2023-02-04T00:10:49.801Z,1025.08
2023-02-04T00:11:49.994Z,1025.07
2023-02-04T00:12:50.170Z,1024.99
2023-02-04T00:13:50.325Z,1025.16
2023-02-04T00:14:50.516Z,1025.19
2023-02-04T00:15:50.696Z,1025.23
2023-02-04T00:16:50.868Z,1025.30
2023-02-04T00:17:51.011Z,1025.34
2023-02-04T00:18:51.165Z,1025.35
2023-02-04T00:19:51.362Z,1025.31
2023-02-04T00:20:51.521Z,1025.42
2023-02-04T00:21:51.682Z,1025.51
2023-02-04T00:22:51.865Z,1025.51
2023-02-04T00:23:52.025Z,1025.53
2023-02-04T00:24:52.191Z,1025.49
2023-02-04T00:25:52.351Z,1025.61
2023-02-04T00:26:52.541Z,1025.64
2023-02-04T00:27:52.778Z,1025.65
2023-02-04T00:28:52.911Z,1025.64
2023-02-04T00:29:53.122Z,1025.60
2023-02-04T00:30:53.274Z,1025.71
2023-02-04T00:31:53.468Z,1025.73
2023-02-04T00:32:53.630Z,1025.78
2023-02-04T00:33:53.795Z,1025.78
2023-02-04T00:34:53.979Z,1025.86
2023-02-04T00:35:54.132Z,1025.86
2023-02-04T00:36:54.323Z,1025.87
2023-02-04T00:37:54.572Z,1025.92
2023-02-04T00:38:54.693Z,1025.91
2023-02-04T00:39:54.882Z,1025.97
2023-02-04T00:40:55.032Z,1025.95
2023-02-04T00:41:55.231Z,1026.00
2023-02-04T00:42:55.443Z,1025.97
2023-02-04T00:43:55.602Z,1026.16
2023-02-04T00:44:55.752Z,1026.18
2023-02-04T00:45:55.996Z,1026.31
2023-02-04T00:46:56.132Z,1026.33
2023-02-04T00:47:56.421Z,1026.28
2023-02-04T00:48:56.493Z,1026.21
2023-02-04T00:49:56.694Z,1026.35
2023-02-04T00:50:56.841Z,1026.40
2023-02-04T00:51:57.031Z,1026.47
2023-02-04T00:52:57.232Z,1026.53
2023-02-04T00:53:57.399Z,1026.55
2023-02-04T00:54:57.561Z,1026.59
2023-02-04T00:55:57.728Z,1026.67
2023-02-04T00:56:57.916Z,1026.78
2023-02-04T00:57:58.091Z,1026.81
2023-02-04T00:58:58.271Z,1026.85
2023-02-04T00:59:58.481Z,1026.84
2023-02-04T01:00:58.652Z,1026.84
2023-02-04T01:01:58.807Z,1026.92
2023-02-04T01:02:59.062Z,1026.96
2023-02-04T01:03:59.132Z,1026.97
2023-02-04T01:04:59.299Z,1027.04
2023-02-04T01:05:59.486Z,1027.13
2023-02-04T01:06:59.642Z,1027.22
2023-02-04T01:07:59.882Z,1027.22
2023-02-04T01:09:00.018Z,1027.24
2023-02-04T01:10:00.184Z,1027.30
2023-02-04T01:11:00.346Z,1027.39
2023-02-04T01:12:00.531Z,1027.46
2023-02-04T01:13:00.724Z,1027.45
2023-02-04T01:14:00.886Z,1027.62
2023-02-04T01:15:01.033Z,1027.54
2023-02-04T01:16:01.262Z,1027.50
2023-02-04T01:17:01.448Z,1027.56
2023-02-04T01:18:01.635Z,1027.60
2023-02-04T01:19:01.704Z,1027.58
2023-02-04T01:20:01.904Z,1027.66
2023-02-04T01:21:02.057Z,1027.74
2023-02-04T01:22:02.244Z,1027.80
2023-02-04T01:23:02.424Z,1027.87
2023-02-04T01:24:02.581Z,1027.80
2023-02-04T01:25:02.734Z,1027.91
2023-02-04T01:26:02.925Z,1027.97
2023-02-04T01:27:03.074Z,1027.95
2023-02-04T01:28:03.396Z,1027.97
2023-02-04T01:29:03.457Z,1027.90
2023-02-04T01:30:03.641Z,1027.92
2023-02-04T01:31:03.848Z,1027.89
2023-02-04T01:32:04.063Z,1028.07
2023-02-04T01:33:04.173Z,1028.00
2023-02-04T01:34:04.337Z,1028.04
2023-02-04T01:35:04.531Z,1028.02
2023-02-04T01:36:04.684Z,1028.05
2023-02-04T01:37:04.864Z,1028.02
2023-02-04T01:38:05.093Z,1028.05
2023-02-04T01:39:05.212Z,1028.17
2023-02-04T01:40:05.421Z,1028.24
2023-02-04T01:41:05.553Z,1028.27
2023-02-04T01:42:05.744Z,1028.35
2023-02-04T01:43:05.921Z,1028.40
2023-02-04T01:44:06.072Z,1028.42
2023-02-04T01:45:06.298Z,1028.54
2023-02-04T01:46:06.494Z,1028.49
2023-02-04T01:47:06.621Z,1028.50
2023-02-04T01:48:06.887Z,1028.57
2023-02-04T01:49:06.985Z,1028.58
2023-02-04T01:50:07.179Z,1028.65
2023-02-04T01:51:07.335Z,1028.65
2023-02-04T01:52:07.525Z,1028.62
2023-02-04T01:53:07.718Z,1028.68
2023-02-04T01:54:07.870Z,1028.72
2023-02-04T01:55:08.050Z,1028.73
2023-02-04T01:56:08.240Z,1028.72
2023-02-04T01:57:08.420Z,1028.78
2023-02-04T01:58:08.640Z,1028.84
2023-02-04T01:59:08.760Z,1028.83
2023-02-04T02:00:08.953Z,1028.86
2023-02-04T02:01:09.183Z,1028.90
2023-02-04T02:02:09.363Z,1028.94
2023-02-04T02:03:09.499Z,1028.92
2023-02-04T02:04:09.674Z,1028.98
2023-02-04T02:05:09.808Z,1029.00
2023-02-04T02:06:09.999Z,1028.97
2023-02-04T02:07:10.185Z,1029.03
2023-02-04T02:08:10.359Z,1029.11
2023-02-04T02:09:10.498Z,1029.15
2023-02-04T02:10:10.688Z,1029.19
2023-02-04T02:11:10.878Z,1029.23
2023-02-04T02:12:11.057Z,1029.22
2023-02-04T02:13:11.238Z,1029.22
2023-02-04T02:14:11.388Z,1029.22
2023-02-04T02:15:11.569Z,1029.31
2023-02-04T02:16:11.760Z,1029.28
2023-02-04T02:17:11.916Z,1029.27
2023-02-04T02:18:12.141Z,1029.29
2023-02-04T02:19:12.288Z,1029.31
2023-02-04T02:20:12.506Z,1029.35
2023-02-04T02:21:12.650Z,1029.39
2023-02-04T02:22:12.836Z,1029.42
2023-02-04T02:23:13.008Z,1029.43
2023-02-04T02:24:13.186Z,1029.44
2023-02-04T02:25:13.365Z,1029.53
2023-02-04T02:26:13.515Z,1029.52
2023-02-04T02:27:13.706Z,1029.59
2023-02-04T02:28:13.924Z,1029.58
2023-02-04T02:29:14.086Z,1029.63
2023-02-04T02:30:14.285Z,1029.69
2023-02-04T02:31:14.496Z,1029.70
2023-02-04T02:32:14.609Z,1029.79
2023-02-04T02:33:14.797Z,1029.82
2023-02-04T02:34:14.936Z,1029.83
2023-02-04T02:35:15.100Z,1029.82
2023-02-04T02:36:15.287Z,1029.84
2023-02-04T02:37:15.441Z,1029.84
2023-02-04T02:38:15.645Z,1029.84
2023-02-04T02:39:15.804Z,1029.87
2023-02-04T02:40:16.004Z,1029.93
2023-02-04T02:41:16.144Z,1029.93
2023-02-04T02:42:16.333Z,1029.96
2023-02-04T02:43:16.525Z,1029.99
2023-02-04T02:44:16.675Z,1030.05
2023-02-04T02:45:16.855Z,1030.09
2023-02-04T02:46:17.159Z,1030.09
2023-02-04T02:47:17.208Z,1030.12
2023-02-04T02:48:17.382Z,1030.13
2023-02-04T02:49:17.537Z,1030.12
2023-02-04T02:50:17.698Z,1030.12
2023-02-04T02:51:17.858Z,1030.14
2023-02-04T02:52:18.008Z,1030.19
2023-02-04T02:53:18.221Z,1030.19
2023-02-04T02:54:18.376Z,1030.22
2023-02-04T02:55:18.573Z,1030.27
2023-02-04T02:56:18.724Z,1030.34
2023-02-04T02:57:18.937Z,1030.40
2023-02-04T02:58:19.077Z,1030.43
2023-02-04T02:59:19.235Z,1030.42
2023-02-04T03:00:19.393Z,1030.44
2023-02-04T03:01:19.651Z,1030.48
2023-02-04T03:02:19.817Z,1030.51
2023-02-04T03:03:19.938Z,1030.56
2023-02-04T03:04:20.085Z,1030.60
2023-02-04T03:05:20.282Z,1030.58
2023-02-04T03:06:20.491Z,1030.63
2023-02-04T03:07:20.634Z,1030.59
2023-02-04T03:08:20.789Z,1030.64
2023-02-04T03:09:20.974Z,1030.64
2023-02-04T03:10:21.135Z,1030.70
2023-02-04T03:11:21.333Z,1030.74
2023-02-04T03:12:21.483Z,1030.79
2023-02-04T03:13:21.690Z,1030.81
2023-02-04T03:14:21.850Z,1030.85
2023-02-04T03:15:22.006Z,1030.85
2023-02-04T03:16:22.169Z,1030.88
2023-02-04T03:17:22.351Z,1030.90
2023-02-04T03:18:22.551Z,1030.95
2023-02-04T03:19:22.704Z,1031.00
2023-02-04T03:20:22.863Z,1030.98
2023-02-04T03:21:23.054Z,1031.07
2023-02-04T03:22:23.219Z,1031.04
2023-02-04T03:23:23.414Z,1031.12
2023-02-04T03:24:23.597Z,1031.13
2023-02-04T03:25:23.754Z,1031.18
2023-02-04T03:26:23.930Z,1031.23
2023-02-04T03:27:24.106Z,1031.25
2023-02-04T03:28:24.274Z,1031.26
2023-02-04T03:29:24.435Z,1031.26
2023-02-04T03:30:24.584Z,1031.29
2023-02-04T03:31:24.846Z,1031.30
2023-02-04T03:32:24.954Z,1031.30
2023-02-04T03:33:25.167Z,1031.36
2023-02-04T03:34:25.315Z,1031.38
2023-02-04T03:35:25.506Z,1031.38
2023-02-04T03:36:25.654Z,1031.45
2023-02-04T03:37:25.848Z,1031.47
2023-02-04T03:38:26.015Z,1031.53
2023-02-04T03:39:26.165Z,1031.57
2023-02-04T03:40:26.323Z,1031.63
2023-02-04T03:41:26.516Z,1031.65
2023-02-04T03:42:26.676Z,1031.73
2023-02-04T03:43:26.982Z,1031.73
2023-02-04T03:44:27.075Z,1031.82
2023-02-04T03:45:32.426Z,1031.85
2023-02-04T03:46:28.416Z,1031.87
2023-02-04T03:47:27.582Z,1031.91
2023-02-04T03:48:27.785Z,1031.96
2023-02-04T03:49:27.947Z,1031.99
2023-02-04T03:50:28.126Z,1032.02
2023-02-04T03:51:28.322Z,1032.04
2023-02-04T03:52:28.474Z,1032.07
2023-02-04T03:53:28.684Z,1032.11
2023-02-04T03:54:28.840Z,1032.10
2023-02-04T03:55:29.034Z,1032.14
2023-02-04T03:56:29.207Z,1032.15
2023-02-04T03:57:29.357Z,1032.21
2023-02-04T03:58:29.561Z,1032.23
2023-02-04T03:59:29.713Z,1032.32
2023-02-04T04:00:30.204Z,1032.31
2023-02-04T04:01:30.120Z,1032.31
2023-02-04T04:02:30.319Z,1032.33
2023-02-04T04:03:30.443Z,1032.32
2023-02-04T04:04:30.590Z,1032.36
2023-02-04T04:05:30.775Z,1032.38
2023-02-04T04:06:30.923Z,1032.37
2023-02-04T04:07:31.114Z,1032.39
2023-02-04T04:08:31.283Z,1032.46
2023-02-04T04:09:31.444Z,1032.45
2023-02-04T04:10:31.923Z,1032.52
2023-02-04T04:11:31.813Z,1032.53
2023-02-04T04:12:31.981Z,1032.54
2023-02-04T04:13:32.152Z,1032.58
2023-02-04T04:14:32.310Z,1032.53
2023-02-04T04:15:32.491Z,1032.60
2023-02-04T04:16:32.647Z,1032.68
2023-02-04T04:17:32.877Z,1032.73
2023-02-04T04:18:33.049Z,1032.76
2023-02-04T04:19:33.211Z,1032.79
2023-02-04T04:20:33.843Z,1032.79
2023-02-04T04:21:33.572Z,1032.87
2023-02-04T04:22:33.727Z,1032.86
2023-02-04T04:23:33.941Z,1032.85
2023-02-04T04:24:34.098Z,1032.89
2023-02-04T04:25:34.243Z,1032.94
2023-02-04T04:26:34.434Z,1032.95
2023-02-04T04:27:34.654Z,1032.94
2023-02-04T04:28:34.772Z,1032.98
2023-02-04T04:29:34.933Z,1032.98
2023-02-04T04:30:35.088Z,1033.04
2023-02-04T04:31:35.334Z,1033.06
2023-02-04T04:32:35.475Z,1033.08
2023-02-04T04:33:35.594Z,1033.17
2023-02-04T04:34:35.777Z,1033.09
2023-02-04T04:35:35.959Z,1033.19
2023-02-04T04:36:36.124Z,1033.22
2023-02-04T04:37:36.327Z,1033.27
2023-02-04T04:38:36.473Z,1033.28
2023-02-04T04:39:36.672Z,1033.28
2023-02-04T04:40:36.824Z,1033.30
2023-02-04T04:41:37.011Z,1033.32
2023-02-04T04:42:37.171Z,1033.33
2023-02-04T04:43:37.331Z,1033.42
2023-02-04T04:44:37.490Z,1033.43
2023-02-04T04:45:37.681Z,1033.43
2023-02-04T04:46:37.925Z,1033.49
2023-02-04T04:47:38.047Z,1033.47
2023-02-04T04:48:38.227Z,1033.52
2023-02-04T04:49:38.373Z,1033.57
2023-02-04T04:50:38.527Z,1033.55
2023-02-04T04:51:38.716Z,1033.58
2023-02-04T04:52:38.876Z,1033.58
2023-02-04T04:53:39.038Z,1033.57
2023-02-04T04:54:39.198Z,1033.60
2023-02-04T04:55:39.375Z,1033.67
2023-02-04T04:56:39.537Z,1033.64
2023-02-04T04:57:39.704Z,1033.74
2023-02-04T04:58:39.877Z,1033.81
2023-02-04T04:59:40.048Z,1033.80
2023-02-04T05:00:40.247Z,1033.79
2023-02-04T05:01:40.387Z,1033.78
2023-02-04T05:02:40.548Z,1033.81
2023-02-04T05:03:40.766Z,1033.84
2023-02-04T05:04:40.939Z,1033.89
2023-02-04T05:05:41.084Z,1033.88
2023-02-04T05:06:41.249Z,1033.87
2023-02-04T05:07:41.440Z,1033.87
2023-02-04T05:08:41.590Z,1033.93
2023-02-04T05:09:41.752Z,1033.91
2023-02-04T05:10:41.908Z,1033.92
2023-02-04T05:11:42.098Z,1033.97
2023-02-04T05:12:42.252Z,1033.98
2023-02-04T05:13:42.421Z,1034.02
2023-02-04T05:14:42.588Z,1034.04
2023-02-04T05:15:42.778Z,1034.14
2023-02-04T05:16:42.994Z,1034.13
2023-02-04T05:17:43.134Z,1034.15
2023-02-04T05:18:43.304Z,1034.17
2023-02-04T05:19:43.461Z,1034.20
2023-02-04T05:20:43.650Z,1034.18
2023-02-04T05:21:43.810Z,1034.28
2023-02-04T05:22:43.969Z,1034.27
2023-02-04T05:23:44.171Z,1034.29
2023-02-04T05:24:44.334Z,1034.27
2023-02-04T05:25:44.510Z,1034.30
2023-02-04T05:26:44.675Z,1034.38
2023-02-04T05:27:44.903Z,1034.34
2023-02-04T05:28:45.046Z,1034.41
2023-02-04T05:29:45.207Z,1034.38
2023-02-04T05:30:45.373Z,1034.42
2023-02-04T05:31:45.610Z,1034.46
2023-02-04T05:32:45.698Z,1034.47
2023-02-04T05:33:45.910Z,1034.47
2023-02-04T05:34:46.063Z,1034.49
2023-02-04T05:35:46.252Z,1034.55
2023-02-04T05:36:46.428Z,1034.56
2023-02-04T05:37:46.623Z,1034.59
2023-02-04T05:38:46.788Z,1034.62
2023-02-04T05:39:46.945Z,1034.64
2023-02-04T05:40:47.102Z,1034.67
2023-02-04T05:41:47.294Z,1034.72
2023-02-04T05:42:47.446Z,1034.79
2023-02-04T05:43:47.646Z,1034.80
2023-02-04T05:44:47.798Z,1034.86
2023-02-04T05:45:48.046Z,1034.89
2023-02-04T05:46:48.163Z,1034.87
2023-02-04T05:47:48.543Z,1034.90
2023-02-04T05:48:48.545Z,1034.93
2023-02-04T05:49:48.704Z,1034.94
2023-02-04T05:50:48.868Z,1034.99
2023-02-04T05:51:49.063Z,1034.99
2023-02-04T05:52:49.230Z,1034.99
2023-02-04T05:53:49.426Z,1035.04
2023-02-04T05:54:49.581Z,1035.05
2023-02-04T05:55:49.774Z,1035.10
2023-02-04T05:56:49.925Z,1035.12
2023-02-04T05:57:50.113Z,1035.15
2023-02-04T05:58:50.287Z,1035.12
2023-02-04T05:59:50.443Z,1035.16
2023-02-04T06:00:50.632Z,1035.17
2023-02-04T06:01:50.813Z,1035.16
2023-02-04T06:02:50.972Z,1035.22
2023-02-04T06:03:51.225Z,1035.23
2023-02-04T06:04:51.322Z,1035.30
2023-02-04T06:05:51.512Z,1035.31
2023-02-04T06:06:51.664Z,1035.34
2023-02-04T06:07:51.852Z,1035.43
2023-02-04T06:08:52.064Z,1035.41
2023-02-04T06:09:52.228Z,1035.46
2023-02-04T06:10:52.405Z,1035.45
2023-02-04T06:11:52.592Z,1035.48
2023-02-04T06:12:52.741Z,1035.50
2023-02-04T06:13:52.921Z,1035.51
2023-02-04T06:14:53.075Z,1035.54
2023-02-04T06:15:53.261Z,1035.55
2023-02-04T06:16:53.452Z,1035.57
2023-02-04T06:17:53.603Z,1035.54
2023-02-04T06:18:53.769Z,1035.58
2023-02-04T06:19:53.929Z,1035.58
2023-02-04T06:20:54.079Z,1035.60
2023-02-04T06:21:54.240Z,1035.58
2023-02-04T06:22:54.414Z,1035.56
2023-02-04T06:23:54.600Z,1035.53
2023-02-04T06:24:54.754Z,1035.56
2023-02-04T06:25:54.930Z,1035.57
2023-02-04T06:26:55.130Z,1035.58
2023-02-04T06:27:55.341Z,1035.62
2023-02-04T06:28:55.470Z,1035.64
2023-02-04T06:29:55.648Z,1035.68
2023-02-04T06:30:55.951Z,1035.72
2023-02-04T06:31:56.204Z,1035.75
2023-02-04T06:32:56.200Z,1035.73
2023-02-04T06:33:56.396Z,1035.76
2023-02-04T06:34:56.551Z,1035.76
2023-02-04T06:35:56.728Z,1035.75
2023-02-04T06:36:56.906Z,1035.72
2023-02-04T06:37:57.096Z,1035.75
2023-02-04T06:38:57.263Z,1035.72
2023-02-04T06:39:57.453Z,1035.75
2023-02-04T06:40:57.640Z,1035.75
2023-02-04T06:41:57.786Z,1035.79
2023-02-04T06:42:57.977Z,1035.73
2023-02-04T06:43:58.180Z,1035.71
2023-02-04T06:44:58.343Z,1035.74
2023-02-04T06:45:58.580Z,1035.70
2023-02-04T06:46:58.685Z,1035.68
2023-02-04T06:47:58.865Z,1035.70
2023-02-04T06:48:59.066Z,1035.69
2023-02-04T06:49:59.220Z,1035.75
2023-02-04T06:50:59.395Z,1035.73
2023-02-04T06:51:59.588Z,1035.76
2023-02-04T06:52:59.779Z,1035.76
2023-02-04T06:53:59.956Z,1035.81
2023-02-04T06:55:00.118Z,1035.80
2023-02-04T06:56:00.274Z,1035.84
2023-02-04T06:57:00.460Z,1035.87
2023-02-04T06:58:00.647Z,1035.91
2023-02-04T06:59:03.034Z,1035.89
2023-02-04T07:00:01.003Z,1035.93
2023-02-04T07:01:01.203Z,1035.95
2023-02-04T07:02:01.391Z,1035.97
2023-02-04T07:03:01.553Z,1035.95
2023-02-04T07:04:01.733Z,1036.01
2023-02-04T07:05:01.904Z,1036.01
2023-02-04T07:06:02.104Z,1036.00
2023-02-04T07:07:02.274Z,1036.03
2023-02-04T07:08:02.470Z,1036.11
2023-02-04T07:09:02.663Z,1036.09
2023-02-04T07:10:02.843Z,1036.13
2023-02-04T07:11:03.031Z,1036.17
2023-02-04T07:12:03.172Z,1036.18
2023-02-04T07:13:03.356Z,1036.18
2023-02-04T07:14:03.552Z,1036.18
2023-02-04T07:15:03.734Z,1036.17
2023-02-04T07:16:03.979Z,1036.21
2023-02-04T07:17:04.072Z,1036.23
2023-02-04T07:18:04.223Z,1036.26
2023-02-04T07:19:04.432Z,1036.26
2023-02-04T07:20:04.594Z,1036.30
2023-02-04T07:21:04.752Z,1036.31
2023-02-04T07:22:04.913Z,1036.33
2023-02-04T07:23:05.078Z,1036.30
2023-02-04T07:24:05.252Z,1036.31
2023-02-04T07:25:05.417Z,1036.33
2023-02-04T07:26:05.571Z,1036.33
2023-02-04T07:27:05.736Z,1036.36
2023-02-04T07:28:05.961Z,1036.33
2023-02-04T07:29:10.263Z,1036.34
2023-02-04T07:30:07.230Z,1036.34
2023-02-04T07:31:06.419Z,1036.37
2023-02-04T07:32:06.718Z,1036.36
2023-02-04T07:33:06.725Z,1036.35
2023-02-04T07:34:06.910Z,1036.40
2023-02-04T07:35:07.090Z,1036.39
2023-02-04T07:36:07.280Z,1036.45
2023-02-04T07:37:07.541Z,1036.46
2023-02-04T07:38:07.632Z,1036.48
2023-02-04T07:39:07.827Z,1036.48
2023-02-04T07:40:07.986Z,1036.53
2023-02-04T07:41:08.164Z,1036.48
2023-02-04T07:42:08.341Z,1036.52
2023-02-04T07:43:08.522Z,1036.54
2023-02-04T07:44:08.781Z,1036.53
2023-02-04T07:45:08.888Z,1036.52
2023-02-04T07:46:09.099Z,1036.50
2023-02-04T07:47:09.222Z,1036.57
2023-02-04T07:48:09.400Z,1036.62
2023-02-04T07:49:09.601Z,1036.63
2023-02-04T07:50:09.767Z,1036.66
2023-02-04T07:51:09.948Z,1036.70
2023-02-04T07:52:10.116Z,1036.73
2023-02-04T07:53:10.299Z,1036.71
2023-02-04T07:54:10.488Z,1036.74
2023-02-04T07:55:10.665Z,1036.79
2023-02-04T07:56:10.836Z,1036.83
2023-02-04T07:57:11.015Z,1036.88
2023-02-04T07:58:11.192Z,1036.91
2023-02-04T07:59:11.384Z,1036.92
2023-02-04T08:00:11.524Z,1036.95
2023-02-04T08:01:11.738Z,1036.97
2023-02-04T08:02:11.854Z,1036.97
2023-02-04T08:03:12.040Z,1037.01
2023-02-04T08:04:12.233Z,1037.00
2023-02-04T08:05:12.377Z,1036.98
2023-02-04T08:06:12.551Z,1037.02
2023-02-04T08:07:12.743Z,1037.04
2023-02-04T08:08:12.917Z,1036.99
2023-02-04T08:09:13.109Z,1037.09
2023-02-04T08:10:13.270Z,1037.09
2023-02-04T08:11:13.453Z,1037.12
2023-02-04T08:12:13.637Z,1037.15
2023-02-04T08:13:13.850Z,1037.15
2023-02-04T08:14:13.990Z,1037.18
2023-02-04T08:15:14.155Z,1037.18
2023-02-04T08:16:14.361Z,1037.13
2023-02-04T08:17:14.458Z,1037.19
2023-02-04T08:18:14.637Z,1037.23
2023-02-04T08:19:14.827Z,1037.23
2023-02-04T08:20:14.998Z,1037.26
2023-02-04T08:21:15.177Z,1037.25
2023-02-04T08:22:15.358Z,1037.33
2023-02-04T08:23:15.539Z,1037.28
2023-02-04T08:24:15.738Z,1037.28
2023-02-04T08:25:15.905Z,1037.27
2023-02-04T08:26:16.085Z,1037.28
2023-02-04T08:27:16.264Z,1037.27
2023-02-04T08:28:16.515Z,1037.28
2023-02-04T08:29:16.633Z,1037.34
2023-02-04T08:30:16.799Z,1037.31
2023-02-04T08:31:17.113Z,1037.31
2023-02-04T08:32:17.149Z,1037.34
2023-02-04T08:33:17.323Z,1037.36
2023-02-04T08:34:17.512Z,1037.32
2023-02-04T08:35:17.692Z,1037.32
2023-02-04T08:36:17.872Z,1037.40
2023-02-04T08:37:18.061Z,1037.41
2023-02-04T08:38:18.240Z,1037.38
2023-02-04T08:39:18.463Z,1037.42
2023-02-04T08:40:20.359Z,1037.44
2023-02-04T08:41:18.775Z,1037.38
2023-02-04T08:42:18.955Z,1037.41
2023-02-04T08:43:19.147Z,1037.38
2023-02-04T08:44:19.342Z,1037.40
2023-02-04T08:45:19.496Z,1037.37
2023-02-04T08:46:19.722Z,1037.37
2023-02-04T08:47:19.852Z,1037.38
2023-02-04T08:48:20.024Z,1037.35
2023-02-04T08:49:20.228Z,1037.39
2023-02-04T08:50:20.406Z,1037.33
2023-02-04T08:51:20.616Z,1037.35
2023-02-04T08:52:20.769Z,1037.34
2023-02-04T08:53:20.959Z,1037.34
2023-02-04T08:54:21.153Z,1037.35
2023-02-04T08:55:21.313Z,1037.34
2023-02-04T08:56:21.463Z,1037.30
2023-02-04T08:57:21.655Z,1037.38
2023-02-04T08:58:21.837Z,1037.36
2023-02-04T08:59:22.048Z,1037.38
2023-02-04T09:00:22.186Z,1037.35
2023-02-04T09:01:22.441Z,1037.36
2023-02-04T09:02:22.581Z,1037.35
2023-02-04T09:03:22.720Z,1037.33
2023-02-04T09:04:22.898Z,1037.39
2023-02-04T09:05:23.050Z,1037.36
2023-02-04T09:06:23.211Z,1037.38
2023-02-04T09:07:23.423Z,1037.36
2023-02-04T09:08:23.563Z,1037.40
2023-02-04T09:09:26.112Z,1037.41
2023-02-04T09:10:23.953Z,1037.41
2023-02-04T09:11:24.084Z,1037.45
2023-02-04T09:12:24.265Z,1037.45
2023-02-04T09:13:24.443Z,1037.43
2023-02-04T09:14:24.627Z,1037.46
2023-02-04T09:15:24.805Z,1037.47
2023-02-04T09:16:25.035Z,1037.45
2023-02-04T09:17:25.171Z,1037.48
2023-02-04T09:18:25.348Z,1037.42
2023-02-04T09:19:25.618Z,1037.45
2023-02-04T09:20:25.786Z,1037.48
2023-02-04T09:21:25.847Z,1037.50
2023-02-04T09:22:26.029Z,1037.51
2023-02-04T09:23:26.220Z,1037.56
2023-02-04T09:24:26.392Z,1037.55
2023-02-04T09:25:26.588Z,1037.58
2023-02-04T09:26:26.748Z,1037.62
2023-02-04T09:27:26.928Z,1037.58
2023-02-04T09:28:27.109Z,1037.62
2023-02-04T09:29:27.312Z,1037.63
2023-02-04T09:30:27.513Z,1037.61
2023-02-04T09:31:27.685Z,1037.66
2023-02-04T09:32:27.808Z,1037.64
2023-02-04T09:33:27.980Z,1037.68
2023-02-04T09:34:28.163Z,1037.66
2023-02-04T09:35:28.362Z,1037.74
2023-02-04T09:36:28.514Z,1037.76
2023-02-04T09:37:28.693Z,1037.77
2023-02-04T09:38:28.870Z,1037.78
2023-02-04T09:39:29.097Z,1037.76
2023-02-04T09:40:29.238Z,1037.79
2023-02-04T09:41:29.422Z,1037.86
2023-02-04T09:42:29.578Z,1037.86
2023-02-04T09:43:29.768Z,1037.90
2023-02-04T09:44:29.939Z,1037.92
2023-02-04T09:45:30.188Z,1037.95
2023-02-04T09:46:30.283Z,1038.04
2023-02-04T09:47:30.456Z,1038.00
2023-02-04T09:48:30.620Z,1037.95
2023-02-04T09:49:30.808Z,1037.96
2023-02-04T09:50:31.231Z,1037.95
2023-02-04T09:51:31.158Z,1037.98
2023-02-04T09:52:31.336Z,1037.99
2023-02-04T09:53:31.513Z,1037.98
2023-02-04T09:54:31.690Z,1037.96
2023-02-04T09:55:31.882Z,1037.99
2023-02-04T09:56:32.051Z,1037.98
2023-02-04T09:57:32.230Z,1037.97
2023-02-04T09:58:32.393Z,1037.95
2023-02-04T09:59:32.581Z,1037.99
2023-02-04T10:00:33.039Z,1037.97
2023-02-04T10:01:32.918Z,1038.06
2023-02-04T10:02:33.088Z,1038.02
2023-02-04T10:03:33.308Z,1037.98
2023-02-04T10:04:33.445Z,1038.01
2023-02-04T10:05:33.632Z,1038.02
2023-02-04T10:06:33.776Z,1038.00
2023-02-04T10:07:33.987Z,1038.00
2023-02-04T10:08:34.158Z,1038.02
2023-02-04T10:09:34.332Z,1038.05
2023-02-04T10:10:34.774Z,1038.05
2023-02-04T10:11:34.692Z,1038.13
2023-02-04T10:12:34.874Z,1038.13
2023-02-04T10:13:35.062Z,1038.14
2023-02-04T10:14:35.260Z,1038.17
2023-02-04T10:15:35.400Z,1038.15
2023-02-04T10:16:35.718Z,1038.15
2023-02-04T10:17:35.773Z,1038.16
2023-02-04T10:18:35.940Z,1038.21
2023-02-04T10:19:36.118Z,1038.26
2023-02-04T10:20:36.314Z,1038.22
2023-02-04T10:21:36.488Z,1038.22
2023-02-04T10:22:36.670Z,1038.25
2023-02-04T10:23:36.837Z,1038.22
2023-02-04T10:24:37.033Z,1038.29
2023-02-04T10:25:37.177Z,1038.29
2023-02-04T10:26:37.356Z,1038.29
2023-02-04T10:27:37.536Z,1038.35
2023-02-04T10:28:37.724Z,1038.30
2023-02-04T10:29:37.926Z,1038.32
2023-02-04T10:30:38.183Z,1038.35
2023-02-04T10:31:38.428Z,1038.37
2023-02-04T10:32:38.451Z,1038.35
2023-02-04T10:33:38.635Z,1038.37
2023-02-04T10:34:38.838Z,1038.35
2023-02-04T10:35:38.962Z,1038.36
2023-02-04T10:36:39.132Z,1038.36
2023-02-04T10:37:39.312Z,1038.37
2023-02-04T10:38:39.482Z,1038.37
2023-02-04T10:39:39.661Z,1038.40
2023-02-04T10:40:39.852Z,1038.41
2023-02-04T10:41:40.052Z,1038.41
2023-02-04T10:42:40.212Z,1038.44
2023-02-04T10:43:40.393Z,1038.44
2023-02-04T10:44:40.563Z,1038.45
2023-02-04T10:45:40.766Z,1038.46
2023-02-04T10:46:40.901Z,1038.43
2023-02-04T10:47:41.073Z,1038.49
2023-02-04T10:48:41.252Z,1038.43
2023-02-04T10:49:41.433Z,1038.41
2023-02-04T10:50:41.651Z,1038.44
2023-02-04T10:51:41.804Z,1038.41
2023-02-04T10:52:41.950Z,1038.38
2023-02-04T10:53:42.103Z,1038.31
2023-02-04T10:54:42.297Z,1038.35
2023-02-04T10:55:42.474Z,1038.36
2023-02-04T10:56:42.644Z,1038.36
2023-02-04T10:57:42.822Z,1038.36
2023-02-04T10:58:42.993Z,1038.38
2023-02-04T10:59:43.171Z,1038.39
2023-02-04T11:00:43.412Z,1038.38
2023-02-04T11:01:43.561Z,1038.34
2023-02-04T11:02:43.688Z,1038.39
2023-02-04T11:03:45.331Z,1038.44
2023-02-04T11:04:44.043Z,1038.41
2023-02-04T11:05:44.254Z,1038.40
2023-02-04T11:06:44.404Z,1038.39
2023-02-04T11:07:44.587Z,1038.43
2023-02-04T11:08:44.754Z,1038.45
2023-02-04T11:09:44.983Z,1038.47
2023-02-04T11:10:45.116Z,1038.47
2023-02-04T11:11:45.285Z,1038.51
2023-02-04T11:12:45.456Z,1038.50
2023-02-04T11:13:45.680Z,1038.52
2023-02-04T11:14:45.803Z,1038.53
2023-02-04T11:15:47.893Z,1038.54
2023-02-04T11:16:46.156Z,1038.49
2023-02-04T11:17:46.344Z,1038.52
2023-02-04T11:18:46.523Z,1038.48
2023-02-04T11:19:46.705Z,1038.51
2023-02-04T11:20:46.903Z,1038.50
2023-02-04T11:21:47.053Z,1038.52
2023-02-04T11:22:47.257Z,1038.47
2023-02-04T11:23:47.412Z,1038.50
2023-02-04T11:24:47.592Z,1038.49
2023-02-04T11:25:47.783Z,1038.47
2023-02-04T11:26:48.947Z,1038.59
2023-02-04T11:27:48.130Z,1038.61
2023-02-04T11:28:48.310Z,1038.60
2023-02-04T11:29:48.500Z,1038.55
2023-02-04T11:30:48.773Z,1038.59
2023-02-04T11:31:49.008Z,1038.52
2023-02-04T11:32:49.024Z,1038.57
2023-02-04T11:33:49.228Z,1038.64
2023-02-04T11:34:49.421Z,1038.57
2023-02-04T11:35:49.611Z,1038.60
2023-02-04T11:36:49.745Z,1038.66
2023-02-04T11:37:49.931Z,1038.62
2023-02-04T11:38:50.117Z,1038.67
2023-02-04T11:39:50.305Z,1038.67
2023-02-04T11:40:50.499Z,1038.58
2023-02-04T11:41:50.628Z,1038.62
2023-02-04T11:42:50.810Z,1038.61
2023-02-04T11:43:50.988Z,1038.65
2023-02-04T11:44:51.179Z,1038.64
2023-02-04T11:45:51.407Z,1038.65
2023-02-04T11:46:51.542Z,1038.65
2023-02-04T11:47:51.708Z,1038.66
2023-02-04T11:48:51.852Z,1038.64
2023-02-04T11:49:52.019Z,1038.67
2023-02-04T11:50:52.278Z,1038.64
2023-02-04T11:51:52.384Z,1038.68
2023-02-04T11:52:52.560Z,1038.62
2023-02-04T11:53:52.751Z,1038.66
2023-02-04T11:54:52.928Z,1038.66
2023-02-04T11:55:53.110Z,1038.70
2023-02-04T11:56:53.302Z,1038.70
2023-02-04T11:57:53.479Z,1038.73
2023-02-04T11:58:53.658Z,1038.74
2023-02-04T11:59:53.836Z,1038.72
2023-02-04T12:00:54.043Z,1038.70
2023-02-04T12:01:54.188Z,1038.75
2023-02-04T12:02:54.386Z,1038.78
2023-02-04T12:03:54.562Z,1038.76
2023-02-04T12:04:54.700Z,1038.77
2023-02-04T12:05:54.933Z,1038.77
2023-02-04T12:06:55.049Z,1038.77
2023-02-04T12:07:55.223Z,1038.80